createdAt,value
2022-11-05T00:00:10.182Z,100.00
2022-11-05T00:02:56.329Z,100.00
2022-11-05T00:05:41.801Z,100.00
2022-11-05T00:08:27.310Z,100.00
2022-11-05T00:10:54.628Z,100.00
2022-11-05T00:13:40.200Z,100.00
2022-11-05T00:16:42.375Z,100.00
2022-11-05T00:19:10.234Z,100.00
2022-11-05T00:21:57.171Z,100.00
2022-11-05T00:24:43.198Z,100.00
2022-11-05T00:27:10.231Z,100.00
2022-11-05T00:29:37.127Z,100.00
2022-11-05T00:32:04.156Z,100.00
2022-11-05T00:34:30.982Z,100.00
2022-11-05T00:36:57.800Z,100.00
2022-11-05T00:39:25.056Z,100.00
2022-11-05T00:42:11.758Z,100.00
2022-11-05T00:44:57.037Z,100.00
2022-11-05T00:47:42.575Z,100.00
2022-11-05T00:50:10.875Z,100.00
2022-11-05T00:52:56.829Z,100.00
2022-11-05T00:55:28.571Z,100.00
2022-11-05T00:57:56.341Z,100.00
2022-11-05T01:00:25.020Z,100.00
2022-11-05T01:02:52.013Z,100.00
2022-11-05T01:05:19.640Z,100.00
2022-11-05T01:07:46.505Z,100.00
2022-11-05T01:10:13.566Z,100.00
2022-11-05T01:12:40.436Z,100.00
2022-11-05T01:15:07.898Z,100.00
2022-11-05T01:17:34.729Z,100.00
2022-11-05T01:20:02.165Z,100.00
2022-11-05T01:22:29.080Z,100.00
2022-11-05T01:24:55.812Z,100.00
2022-11-05T01:27:22.789Z,100.00
2022-11-05T01:29:50.114Z,100.00
2022-11-05T01:32:16.950Z,100.00
2022-11-05T01:34:43.686Z,100.00
2022-11-05T01:37:10.661Z,100.00
2022-11-05T01:39:37.627Z,100.00
2022-11-05T01:42:13.774Z,100.00
2022-11-05T01:44:55.576Z,100.00
2022-11-05T01:47:38.892Z,100.00
2022-11-05T01:50:17.563Z,100.00
2022-11-05T01:52:44.551Z,100.00
2022-11-05T01:55:13.573Z,100.00
2022-11-05T01:57:40.978Z,100.00
2022-11-05T02:00:08.584Z,100.00
2022-11-05T02:02:35.555Z,100.00
2022-11-05T02:05:06.678Z,100.00
2022-11-05T02:07:34.049Z,100.00
2022-11-05T02:10:06.035Z,100.00
2022-11-05T02:12:34.409Z,100.00
2022-11-05T02:15:01.231Z,100.00
2022-11-05T02:17:27.966Z,100.00
2022-11-05T02:20:12.727Z,100.00
2022-11-05T02:22:48.901Z,100.00
2022-11-05T02:25:42.888Z,100.00
2022-11-05T02:28:25.147Z,100.00
2022-11-05T02:31:08.564Z,100.00
2022-11-05T02:33:59.252Z,100.00
2022-11-05T02:36:40.017Z,100.00
2022-11-05T02:39:22.124Z,100.00
2022-11-05T02:42:02.066Z,100.00
2022-11-05T02:45:09.924Z,100.00
2022-11-05T02:47:47.725Z,100.00
2022-11-05T02:50:24.154Z,100.00
2022-11-05T02:53:02.968Z,100.00
2022-11-05T02:55:47.009Z,100.00
2022-11-05T02:58:13.818Z,100.00
2022-11-05T03:00:54.267Z,100.00
2022-11-05T03:03:23.919Z,100.00
2022-11-05T03:06:01.338Z,100.00
2022-11-05T03:08:43.312Z,100.00
2022-11-05T03:11:16.763Z,100.00
2022-11-05T03:13:46.365Z,100.00
2022-11-05T03:16:20.097Z,100.00
2022-11-05T03:18:58.676Z,100.00
2022-11-05T03:21:51.383Z,100.00
2022-11-05T03:24:20.634Z,100.00
2022-11-05T03:26:47.463Z,100.00
2022-11-05T03:29:33.132Z,100.00
2022-11-05T03:32:03.239Z,100.00
2022-11-05T03:34:36.666Z,100.00
2022-11-05T03:37:05.355Z,100.00
2022-11-05T03:39:38.272Z,100.00
2022-11-05T03:42:08.160Z,100.00
2022-11-05T03:44:38.797Z,100.00
2022-11-05T03:47:18.037Z,100.00
2022-11-05T03:50:14.302Z,100.00
2022-11-05T03:52:47.756Z,100.00
2022-11-05T03:55:15.244Z,100.00
2022-11-05T03:57:47.246Z,100.00
2022-11-05T04:00:14.446Z,100.00
2022-11-05T04:02:41.847Z,100.00
2022-11-05T04:05:08.786Z,100.00
2022-11-05T04:07:54.231Z,100.00
2022-11-05T04:10:46.966Z,100.00
2022-11-05T04:13:25.949Z,100.00
2022-11-05T04:16:13.037Z,100.00
2022-11-05T04:18:40.446Z,100.00
2022-11-05T04:21:27.910Z,100.00
2022-11-05T04:24:10.394Z,100.00
2022-11-05T04:26:44.595Z,100.00
2022-11-05T04:29:30.374Z,100.00
2022-11-05T04:31:57.222Z,100.00
2022-11-05T04:34:24.188Z,100.00
2022-11-05T04:36:53.204Z,100.00
2022-11-05T04:39:20.807Z,100.00
2022-11-05T04:41:48.768Z,100.00
2022-11-05T04:44:16.874Z,100.00
2022-11-05T04:46:43.814Z,100.00
2022-11-05T04:49:10.642Z,100.00
2022-11-05T04:51:37.473Z,100.00
2022-11-05T04:54:04.320Z,100.00
2022-11-05T04:56:31.332Z,100.00
2022-11-05T04:58:58.105Z,100.00
2022-11-05T05:01:25.651Z,100.00
2022-11-05T05:03:54.091Z,100.00
2022-11-05T05:06:21.947Z,100.00
2022-11-05T05:08:50.586Z,100.00
2022-11-05T05:11:20.461Z,100.00
2022-11-05T05:13:47.721Z,100.00
2022-11-05T05:16:23.776Z,100.00
2022-11-05T05:18:51.473Z,100.00
2022-11-05T05:21:38.625Z,100.00
2022-11-05T05:24:13.578Z,100.00
2022-11-05T05:26:43.300Z,100.00
2022-11-05T05:29:10.923Z,100.00
2022-11-05T05:31:38.228Z,100.00
2022-11-05T05:34:06.556Z,100.00
2022-11-05T05:36:34.052Z,100.00
2022-11-05T05:39:00.875Z,100.00
2022-11-05T05:41:27.703Z,100.00
2022-11-05T05:43:54.497Z,100.00
2022-11-05T05:46:21.294Z,100.00
2022-11-05T05:48:50.168Z,100.00
2022-11-05T05:51:17.771Z,100.00
2022-11-05T05:53:44.939Z,100.00
2022-11-05T05:56:14.842Z,100.00
2022-11-05T05:58:41.676Z,100.00
2022-11-05T06:01:17.300Z,100.00
2022-11-05T06:03:45.630Z,100.00
2022-11-05T06:06:13.465Z,100.00
2022-11-05T06:08:41.212Z,100.00
2022-11-05T06:11:09.082Z,100.00
2022-11-05T06:13:36.347Z,100.00
2022-11-05T06:16:05.849Z,100.00
2022-11-05T06:18:33.558Z,100.00
2022-11-05T06:21:09.128Z,100.00
2022-11-05T06:23:38.497Z,100.00
2022-11-05T06:26:14.169Z,100.00
2022-11-05T06:28:42.215Z,100.00
2022-11-05T06:31:10.501Z,100.00
2022-11-05T06:33:37.333Z,100.00
2022-11-05T06:36:06.224Z,100.00
2022-11-05T06:38:35.082Z,100.00
2022-11-05T06:41:07.153Z,100.00
2022-11-05T06:43:35.801Z,100.00
2022-11-05T06:46:03.180Z,100.00
2022-11-05T06:48:30.248Z,100.00
2022-11-05T06:50:57.155Z,100.00
2022-11-05T06:53:24.205Z,100.00
2022-11-05T06:55:50.977Z,100.00
2022-11-05T06:58:17.854Z,100.00
2022-11-05T07:00:45.158Z,100.00
2022-11-05T07:03:13.437Z,100.00
2022-11-05T07:05:46.650Z,100.00
2022-11-05T07:08:13.759Z,100.00
2022-11-05T07:10:40.524Z,100.00
2022-11-05T07:13:08.709Z,100.00
2022-11-05T07:15:36.748Z,100.00
2022-11-05T07:18:04.647Z,100.00
2022-11-05T07:20:34.196Z,100.00
2022-11-05T07:23:02.588Z,100.00
2022-11-05T07:25:31.370Z,100.00
2022-11-05T07:27:58.746Z,100.00
2022-11-05T07:30:26.399Z,100.00
2022-11-05T07:32:53.311Z,100.00
2022-11-05T07:35:20.163Z,100.00
2022-11-05T07:37:49.165Z,100.00
2022-11-05T07:40:21.069Z,100.00
2022-11-05T07:42:53.675Z,100.00
2022-11-05T07:45:20.551Z,100.00
2022-11-05T07:47:49.026Z,100.00
2022-11-05T07:50:18.075Z,100.00
2022-11-05T07:52:45.058Z,100.00
2022-11-05T07:55:13.383Z,100.00
2022-11-05T07:57:51.155Z,100.00
2022-11-05T08:00:22.082Z,100.00
2022-11-05T08:03:09.723Z,100.00
2022-11-05T08:05:39.494Z,100.00
2022-11-05T08:08:08.342Z,100.00
2022-11-05T08:10:36.203Z,100.00
2022-11-05T08:13:03.381Z,100.00
2022-11-05T08:15:30.654Z,100.00
2022-11-05T08:18:08.137Z,100.00
2022-11-05T08:20:35.935Z,100.00
2022-11-05T08:23:02.948Z,100.00
2022-11-05T08:25:29.875Z,100.00
2022-11-05T08:28:02.116Z,100.00
2022-11-05T08:30:29.853Z,100.00
2022-11-05T08:33:06.074Z,100.00
2022-11-05T08:35:34.754Z,100.00
2022-11-05T08:38:03.912Z,100.00
2022-11-05T08:40:32.446Z,100.00
2022-11-05T08:43:00.716Z,100.00
2022-11-05T08:45:27.950Z,100.00
2022-11-05T08:48:03.288Z,99.87
2022-11-05T08:50:30.674Z,99.01
2022-11-05T08:52:57.657Z,99.53
2022-11-05T08:55:24.760Z,98.29
2022-11-05T08:57:56.561Z,97.55
2022-11-05T09:00:23.981Z,96.79
2022-11-05T09:02:51.087Z,97.01
2022-11-05T09:05:17.939Z,97.14
2022-11-05T09:07:46.664Z,95.03
2022-11-05T09:10:13.501Z,94.25
2022-11-05T09:12:40.611Z,93.75
2022-11-05T09:15:07.860Z,94.64
2022-11-05T09:17:34.718Z,95.45
2022-11-05T09:20:03.595Z,95.44
2022-11-05T09:22:30.929Z,95.49
2022-11-05T09:24:57.725Z,95.61
2022-11-05T09:27:24.517Z,95.97
2022-11-05T09:29:51.734Z,95.67
2022-11-05T09:32:19.412Z,95.46
2022-11-05T09:34:48.555Z,95.80
2022-11-05T09:37:15.797Z,94.58
2022-11-05T09:39:42.593Z,95.87
2022-11-05T09:42:12.613Z,94.96
2022-11-05T09:45:00.746Z,95.36
2022-11-05T09:47:42.624Z,94.61
2022-11-05T09:50:17.452Z,94.45
2022-11-05T09:52:44.835Z,95.31
2022-11-05T09:55:21.963Z,93.90
2022-11-05T09:57:57.426Z,93.09
2022-11-05T10:00:24.554Z,92.51
2022-11-05T10:02:59.172Z,91.88
2022-11-05T10:05:27.518Z,93.35
2022-11-05T10:08:17.004Z,92.00
2022-11-05T10:10:49.125Z,92.03
2022-11-05T10:13:22.222Z,91.08
2022-11-05T10:16:02.514Z,90.43
2022-11-05T10:18:39.650Z,88.28
2022-11-05T10:21:17.023Z,88.74
2022-11-05T10:23:45.450Z,87.90
2022-11-05T10:26:17.293Z,87.70
2022-11-05T10:28:47.633Z,87.43
2022-11-05T10:31:21.214Z,86.68
2022-11-05T10:33:51.985Z,85.17
2022-11-05T10:36:32.141Z,84.31
2022-11-05T10:39:06.709Z,85.98
2022-11-05T10:41:39.498Z,83.46
2022-11-05T10:44:19.091Z,82.57
2022-11-05T10:47:06.883Z,81.29
2022-11-05T10:49:59.861Z,82.65
2022-11-05T10:52:39.505Z,81.32
2022-11-05T10:55:21.676Z,81.69
2022-11-05T10:57:51.494Z,80.57
2022-11-05T11:00:23.686Z,80.00
2022-11-05T11:02:54.208Z,80.87
2022-11-05T11:05:26.945Z,78.95
2022-11-05T11:08:21.795Z,79.43
2022-11-05T11:10:58.191Z,77.55
2022-11-05T11:13:28.353Z,79.54
2022-11-05T11:16:12.944Z,79.12
2022-11-05T11:18:42.619Z,77.22
2022-11-05T11:21:20.242Z,75.26
2022-11-05T11:23:58.827Z,77.38
2022-11-05T11:26:28.873Z,77.72
2022-11-05T11:29:12.515Z,75.56
2022-11-05T11:31:40.138Z,77.46
2022-11-05T11:34:18.707Z,76.63
2022-11-05T11:36:48.163Z,77.11
2022-11-05T11:39:19.725Z,76.07
2022-11-05T11:41:52.340Z,76.90
2022-11-05T11:44:27.310Z,75.76
2022-11-05T11:47:05.079Z,74.31
2022-11-05T11:49:51.255Z,74.27
2022-11-05T11:52:30.488Z,73.11
2022-11-05T11:55:18.518Z,69.85
2022-11-05T11:57:49.152Z,68.19
2022-11-05T12:00:18.238Z,68.73
2022-11-05T12:03:06.393Z,68.91
2022-11-05T12:05:42.475Z,66.82
2022-11-05T12:08:59.373Z,69.16
2022-11-05T12:11:35.008Z,65.54
2022-11-05T12:14:10.195Z,65.90
2022-11-05T12:17:11.964Z,68.52
2022-11-05T12:20:02.101Z,69.74
2022-11-05T12:23:15.426Z,71.16
2022-11-05T12:25:59.687Z,71.72
2022-11-05T12:28:29.488Z,73.45
2022-11-05T12:31:16.293Z,74.44
2022-11-05T12:34:00.560Z,73.58
2022-11-05T12:36:59.383Z,74.13
2022-11-05T12:39:52.962Z,75.01
2022-11-05T12:42:37.716Z,74.63
2022-11-05T12:45:33.136Z,75.40
2022-11-05T12:48:16.846Z,75.10
2022-11-05T12:50:49.847Z,76.94
2022-11-05T12:53:41.106Z,77.32
2022-11-05T12:56:18.940Z,78.67
2022-11-05T12:59:00.431Z,77.92
2022-11-05T13:01:37.221Z,78.70
2022-11-05T13:04:18.120Z,78.33
2022-11-05T13:06:49.944Z,78.37
2022-11-05T13:09:32.434Z,79.06
2022-11-05T13:12:07.491Z,79.24
2022-11-05T13:14:57.617Z,79.02
2022-11-05T13:17:32.737Z,79.33
2022-11-05T13:20:17.161Z,79.12
2022-11-05T13:22:48.088Z,79.73
2022-11-05T13:25:28.270Z,80.21
2022-11-05T13:28:23.872Z,79.78
2022-11-05T13:31:01.615Z,79.45
2022-11-05T13:33:40.666Z,79.30
2022-11-05T13:36:32.745Z,80.58
2022-11-05T13:39:13.272Z,80.14
2022-11-05T13:42:17.868Z,80.04
2022-11-05T13:45:03.106Z,81.08
2022-11-05T13:47:52.337Z,81.53
2022-11-05T13:50:25.449Z,81.48
2022-11-05T13:53:11.349Z,81.83
2022-11-05T13:55:51.011Z,81.53
2022-11-05T13:58:52.806Z,81.66
2022-11-05T14:01:39.229Z,81.85
2022-11-05T14:04:14.175Z,82.62
2022-11-05T14:06:42.235Z,82.02
2022-11-05T14:09:17.847Z,82.91
2022-11-05T14:11:52.461Z,83.04
2022-11-05T14:14:25.668Z,82.19
2022-11-05T14:17:14.261Z,82.43
2022-11-05T14:20:04.514Z,81.87
2022-11-05T14:22:32.181Z,81.75
2022-11-05T14:25:22.732Z,82.75
2022-11-05T14:27:52.590Z,82.67
2022-11-05T14:30:47.535Z,82.72
2022-11-05T14:33:31.456Z,84.08
2022-11-05T14:36:20.581Z,83.75
2022-11-05T14:38:53.761Z,83.19
2022-11-05T14:41:21.931Z,83.24
2022-11-05T14:44:07.483Z,83.18
2022-11-05T14:46:48.012Z,83.83
2022-11-05T14:49:22.753Z,83.59
2022-11-05T14:51:52.912Z,83.29
2022-11-05T14:54:31.002Z,82.99
2022-11-05T14:57:02.200Z,84.01
2022-11-05T14:59:31.659Z,83.93
2022-11-05T15:02:12.133Z,83.73
2022-11-05T15:04:43.608Z,82.97
2022-11-05T15:07:11.587Z,83.69
2022-11-05T15:09:54.682Z,83.79
2022-11-05T15:12:50.904Z,83.14
2022-11-05T15:15:29.150Z,83.78
2022-11-05T15:18:23.868Z,84.14
2022-11-05T15:20:57.307Z,83.16
2022-11-05T15:23:30.514Z,83.73
2022-11-05T15:26:26.201Z,83.12
2022-11-05T15:28:55.265Z,83.40
2022-11-05T15:31:37.019Z,83.08
2022-11-05T15:34:18.947Z,84.35
2022-11-05T15:36:57.668Z,84.26
2022-11-05T15:39:33.978Z,85.56
2022-11-05T15:42:05.210Z,86.58
2022-11-05T15:44:40.156Z,86.22
2022-11-05T15:47:21.166Z,86.40
2022-11-05T15:49:53.306Z,87.06
2022-11-05T15:52:24.345Z,86.73
2022-11-05T15:55:10.753Z,87.39
2022-11-05T15:57:47.845Z,87.30
2022-11-05T16:00:26.070Z,87.31
2022-11-05T16:03:04.963Z,87.47
2022-11-05T16:05:43.473Z,88.25
2022-11-05T16:08:17.455Z,89.23
2022-11-05T16:10:49.948Z,89.52
2022-11-05T16:13:30.452Z,88.74
2022-11-05T16:16:02.052Z,89.67
2022-11-05T16:18:38.898Z,89.45
2022-11-05T16:21:09.885Z,90.43
2022-11-05T16:23:49.959Z,90.35
2022-11-05T16:26:55.759Z,90.90
2022-11-05T16:29:23.592Z,91.69
2022-11-05T16:31:54.048Z,92.99
2022-11-05T16:34:40.532Z,93.42
2022-11-05T16:37:13.790Z,93.99
2022-11-05T16:39:41.948Z,94.64
2022-11-05T16:42:26.515Z,94.55
2022-11-05T16:44:55.412Z,95.71
2022-11-05T16:47:22.977Z,96.71
2022-11-05T16:49:51.332Z,96.90
2022-11-05T16:52:19.366Z,97.45
2022-11-05T16:54:47.000Z,98.26
2022-11-05T16:57:27.534Z,98.66
2022-11-05T17:00:00.476Z,99.57
2022-11-05T17:02:31.701Z,99.71
2022-11-05T17:04:59.808Z,100.00
2022-11-05T17:07:28.783Z,100.00
2022-11-05T17:09:56.323Z,100.00
2022-11-05T17:12:24.378Z,100.00
2022-11-05T17:14:51.756Z,100.00
2022-11-05T17:17:19.081Z,100.00
2022-11-05T17:19:47.479Z,100.00
2022-11-05T17:22:15.356Z,100.00
2022-11-05T17:24:43.754Z,100.00
2022-11-05T17:27:15.167Z,100.00
2022-11-05T17:29:43.478Z,100.00
2022-11-05T17:32:11.233Z,100.00
2022-11-05T17:34:40.827Z,100.00
2022-11-05T17:37:08.321Z,100.00
2022-11-05T17:39:36.469Z,100.00
2022-11-05T17:42:07.436Z,100.00
2022-11-05T17:44:35.142Z,100.00
2022-11-05T17:47:03.022Z,100.00
2022-11-05T17:49:31.802Z,100.00
2022-11-05T17:51:59.775Z,100.00
2022-11-05T17:54:27.407Z,100.00
2022-11-05T17:56:55.491Z,100.00
2022-11-05T17:59:24.484Z,100.00
2022-11-05T18:01:52.817Z,100.00
2022-11-05T18:04:20.628Z,100.00
2022-11-05T18:06:52.397Z,100.00
2022-11-05T18:09:20.867Z,100.00
2022-11-05T18:11:48.705Z,100.00
2022-11-05T18:14:22.777Z,100.00
2022-11-05T18:16:55.491Z,100.00
2022-11-05T18:19:24.599Z,100.00
2022-11-05T18:21:53.800Z,100.00
2022-11-05T18:24:22.488Z,100.00
2022-11-05T18:26:50.723Z,100.00
2022-11-05T18:29:18.460Z,100.00
2022-11-05T18:31:47.263Z,100.00
2022-11-05T18:34:16.572Z,100.00
2022-11-05T18:36:53.479Z,100.00
2022-11-05T18:39:24.534Z,100.00
2022-11-05T18:41:52.102Z,100.00
2022-11-05T18:44:23.165Z,100.00
2022-11-05T18:46:58.016Z,100.00
2022-11-05T18:49:28.607Z,100.00
2022-11-05T18:51:57.913Z,100.00
2022-11-05T18:54:26.158Z,100.00
2022-11-05T18:56:53.996Z,100.00
2022-11-05T18:59:36.875Z,100.00
2022-11-05T19:02:08.241Z,100.00
2022-11-05T19:04:43.835Z,100.00
2022-11-05T19:07:24.049Z,100.00
2022-11-05T19:09:53.177Z,100.00
2022-11-05T19:12:22.798Z,100.00
2022-11-05T19:14:50.779Z,100.00
2022-11-05T19:17:18.597Z,100.00
2022-11-05T19:19:47.482Z,100.00
2022-11-05T19:22:15.378Z,100.00
2022-11-05T19:24:43.697Z,100.00
2022-11-05T19:27:13.031Z,100.00
2022-11-05T19:29:41.842Z,100.00
2022-11-05T19:32:09.695Z,100.00
2022-11-05T19:34:37.462Z,100.00
2022-11-05T19:37:08.501Z,100.00
2022-11-05T19:39:36.963Z,100.00
2022-11-05T19:42:06.136Z,100.00
2022-11-05T19:44:34.546Z,100.00
2022-11-05T19:47:03.481Z,100.00
2022-11-05T19:49:31.781Z,100.00
2022-11-05T19:51:59.557Z,100.00
2022-11-05T19:54:27.090Z,100.00
2022-11-05T19:56:54.666Z,100.00
2022-11-05T19:59:22.130Z,100.00
2022-11-05T20:01:50.284Z,100.00
2022-11-05T20:04:18.443Z,100.00
2022-11-05T20:06:48.084Z,100.00
2022-11-05T20:09:23.477Z,100.00
2022-11-05T20:11:54.867Z,100.00
2022-11-05T20:14:24.900Z,100.00
2022-11-05T20:16:53.694Z,100.00
2022-11-05T20:19:23.183Z,100.00
2022-11-05T20:21:51.638Z,100.00
2022-11-05T20:24:25.340Z,100.00
2022-11-05T20:26:55.867Z,100.00
2022-11-05T20:29:35.283Z,100.00
2022-11-05T20:32:05.713Z,100.00
2022-11-05T20:34:35.801Z,100.00
2022-11-05T20:37:03.547Z,100.00
2022-11-05T20:39:32.679Z,100.00
2022-11-05T20:42:01.147Z,100.00
2022-11-05T20:44:29.391Z,100.00
2022-11-05T20:46:57.290Z,100.00
2022-11-05T20:49:25.789Z,100.00
2022-11-05T20:51:54.296Z,100.00
2022-11-05T20:54:22.403Z,100.00
2022-11-05T20:56:50.418Z,100.00
2022-11-05T20:59:19.360Z,100.00
2022-11-05T21:01:47.670Z,100.00
2022-11-05T21:04:15.338Z,100.00
2022-11-05T21:06:43.611Z,100.00
2022-11-05T21:09:11.525Z,100.00
2022-11-05T21:11:57.973Z,100.00
2022-11-05T21:14:26.221Z,100.00
2022-11-05T21:16:53.826Z,100.00
2022-11-05T21:19:24.337Z,100.00
2022-11-05T21:21:51.761Z,100.00
2022-11-05T21:24:19.513Z,100.00
2022-11-05T21:26:47.299Z,100.00
2022-11-05T21:29:15.096Z,100.00
2022-11-05T21:31:43.000Z,100.00
2022-11-05T21:34:11.673Z,100.00
2022-11-05T21:36:40.724Z,100.00
2022-11-05T21:39:13.198Z,100.00
2022-11-05T21:41:42.822Z,100.00
2022-11-05T21:44:10.614Z,100.00
2022-11-05T21:46:38.097Z,100.00
2022-11-05T21:49:05.161Z,100.00
2022-11-05T21:51:50.896Z,100.00
2022-11-05T21:54:36.744Z,100.00
2022-11-05T21:57:22.474Z,100.00
2022-11-05T21:59:49.912Z,100.00
2022-11-05T22:02:19.576Z,100.00
2022-11-05T22:04:52.541Z,100.00
2022-11-05T22:07:22.987Z,100.00
2022-11-05T22:09:50.131Z,100.00
2022-11-05T22:12:17.144Z,100.00
2022-11-05T22:14:44.125Z,100.00
2022-11-05T22:17:12.701Z,100.00
2022-11-05T22:19:39.724Z,100.00
2022-11-05T22:22:06.864Z,100.00
2022-11-05T22:24:34.600Z,100.00
2022-11-05T22:27:05.465Z,100.00
2022-11-05T22:29:32.476Z,100.00
2022-11-05T22:31:59.354Z,100.00
2022-11-05T22:34:26.345Z,100.00
2022-11-05T22:36:53.724Z,100.00
2022-11-05T22:39:21.123Z,100.00
2022-11-05T22:41:48.190Z,100.00
2022-11-05T22:44:16.737Z,100.00
2022-11-05T22:46:44.078Z,100.00
2022-11-05T22:49:11.309Z,100.00
2022-11-05T22:51:39.324Z,100.00
2022-11-05T22:54:07.513Z,100.00
2022-11-05T22:56:37.420Z,100.00
2022-11-05T22:59:05.611Z,100.00
2022-11-05T23:01:32.980Z,100.00
2022-11-05T23:04:00.269Z,100.00
2022-11-05T23:06:49.184Z,100.00
2022-11-05T23:09:50.030Z,100.00
2022-11-05T23:12:28.953Z,100.00
2022-11-05T23:14:58.473Z,100.00
2022-11-05T23:17:44.721Z,100.00
2022-11-05T23:20:37.168Z,100.00
2022-11-05T23:23:24.658Z,100.00
2022-11-05T23:25:57.629Z,100.00
2022-11-05T23:28:24.733Z,100.00
2022-11-05T23:31:09.853Z,100.00
2022-11-05T23:33:36.978Z,100.00
2022-11-05T23:36:22.505Z,100.00
2022-11-05T23:38:49.278Z,100.00
2022-11-05T23:41:34.557Z,100.00
2022-11-05T23:44:20.040Z,100.00
2022-11-05T23:47:05.178Z,100.00
2022-11-05T23:49:32.194Z,100.00
2022-11-05T23:51:59.232Z,100.00
2022-11-05T23:54:26.365Z,100.00
2022-11-05T23:56:53.212Z,100.00
2022-11-05T23:59:20.122Z,100.00
